首页
METAR-TAF:

METAR-TAF

机场 :

利欣加, 莫桑比克

纬度: 13-18S, 经度: 035-14E, 海拔: 1364米

当前天气观测

该预报发布于1小时和1分钟前的14:00 UTC
风速4节,风向北转东北
温度 23°C
湿度 57%
气压 1021 hPa
能见度10公里或以上
多云层高于2000英尺
散云层高于8000英尺

METAR: FQLC 251400Z 03004KT 9999 BKN020 SCT080 23/14 Q1021

时间: 17:01 (15:01 UTC)

预报

该预报发布于5小时和1分钟前的10:00 UTC
预报有效从25日的 12点(UTC)到 26日的 12点(UTC)
风速10节,风向东转东北
能见度10公里或以上
多云层高于1500英尺
成为
从 25日的 18点(UTC)到 25日的 20点(UTC)
风速1节,风向多变
成为
从 26日的 09点(UTC)到 26日的 11点(UTC)
风速8节,风向

TAF: FQLC 251000Z 2512/2612 06010KT 9999 BKN015 TX26/2513Z TN11/2603Z BECMG 2518/2520 VRB01KT BECMG 2609/2611 36008KT

超过4000个机场的气象观测和天气预报(METAR&TAF报告)。

可查询的气象台以黄色和红色小点在地图上表示。

将鼠标移到小点上方,可查看气象台名称。

然后点击查看天气观测和预报。

如需切换地图:点击带黑十字的绿色按钮放大地图;点击带横线的绿色按钮缩小地图;或者点击绿色箭头查看邻近地区的地图。


METAR-TAF: